createdAt,value
2019-05-10T00:00:04.475Z,83.98
2019-05-10T00:02:50.968Z,83.94
2019-05-10T00:05:37.118Z,83.47
2019-05-10T00:08:23.557Z,83.62
2019-05-10T00:11:01.091Z,82.75
2019-05-10T00:13:30.266Z,82.41
2019-05-10T00:15:58.924Z,83.62
2019-05-10T00:18:26.516Z,83.80
2019-05-10T00:20:54.059Z,83.54
2019-05-10T00:23:21.444Z,82.61
2019-05-10T00:25:51.302Z,83.41
2019-05-10T00:28:18.066Z,83.93
2019-05-10T00:30:45.629Z,83.19
2019-05-10T00:33:12.783Z,83.91
2019-05-10T00:35:40.169Z,84.54
2019-05-10T00:38:07.435Z,83.28
2019-05-10T00:40:34.694Z,83.36
2019-05-10T00:43:01.954Z,82.69
2019-05-10T00:45:29.199Z,82.09
2019-05-10T00:47:56.462Z,84.60
2019-05-10T00:50:23.836Z,83.89
2019-05-10T00:52:52.255Z,83.09
2019-05-10T00:55:19.671Z,83.96
2019-05-10T00:57:46.884Z,83.64
2019-05-10T01:00:14.878Z,83.83
2019-05-10T01:02:42.127Z,82.36
2019-05-10T01:05:09.638Z,83.52
2019-05-10T01:07:36.987Z,83.77
2019-05-10T01:10:04.799Z,84.30
2019-05-10T01:12:31.960Z,83.61
2019-05-10T01:14:59.109Z,84.50
2019-05-10T01:17:26.647Z,84.58
2019-05-10T01:19:54.983Z,83.21
2019-05-10T01:22:22.402Z,84.33
2019-05-10T01:24:51.208Z,83.42
2019-05-10T01:27:18.672Z,83.95
2019-05-10T01:29:46.003Z,83.29
2019-05-10T01:32:13.772Z,83.13
2019-05-10T01:34:52.424Z,83.29
2019-05-10T01:37:19.786Z,83.57
2019-05-10T01:39:47.141Z,83.71
2019-05-10T01:42:14.378Z,84.17
2019-05-10T01:44:41.552Z,83.91
2019-05-10T01:47:08.800Z,82.67
2019-05-10T01:49:36.145Z,83.55
2019-05-10T01:52:04.350Z,82.81
2019-05-10T01:54:31.725Z,83.48
2019-05-10T01:56:58.975Z,83.70
2019-05-10T01:59:26.228Z,83.36
2019-05-10T02:01:53.473Z,83.13
2019-05-10T02:04:20.976Z,83.29
2019-05-10T02:06:48.318Z,82.89
2019-05-10T02:09:17.573Z,82.91
2019-05-10T02:11:47.702Z,82.80
2019-05-10T02:14:15.244Z,82.87
2019-05-10T02:16:42.670Z,83.71
2019-05-10T02:19:09.919Z,82.87
2019-05-10T02:21:37.274Z,82.94
2019-05-10T02:24:04.654Z,82.86
2019-05-10T02:26:31.928Z,83.17
2019-05-10T02:28:59.161Z,82.65
2019-05-10T02:31:26.313Z,82.66
2019-05-10T02:33:53.465Z,82.94
2019-05-10T02:36:20.746Z,82.29
2019-05-10T02:38:48.092Z,82.85
2019-05-10T02:41:15.729Z,82.26
2019-05-10T02:43:43.432Z,82.40
2019-05-10T02:46:10.907Z,81.99
2019-05-10T02:48:38.372Z,81.68
2019-05-10T02:51:05.926Z,82.39
2019-05-10T02:53:33.596Z,82.12
2019-05-10T02:56:02.627Z,81.91
2019-05-10T02:58:31.747Z,83.21
2019-05-10T03:01:01.835Z,83.42
2019-05-10T03:03:31.994Z,83.40
2019-05-10T03:06:01.933Z,82.05
2019-05-10T03:08:46.675Z,81.32
2019-05-10T03:11:14.413Z,81.75
2019-05-10T03:13:47.836Z,82.33
2019-05-10T03:16:18.893Z,82.01
2019-05-10T03:18:48.863Z,82.12
2019-05-10T03:21:17.830Z,82.29
2019-05-10T03:23:46.459Z,82.57
2019-05-10T03:26:13.918Z,82.05
2019-05-10T03:28:41.303Z,82.87
2019-05-10T03:31:08.857Z,83.25
2019-05-10T03:33:36.937Z,82.71
2019-05-10T03:36:09.465Z,82.33
2019-05-10T03:38:37.670Z,83.26
2019-05-10T03:41:05.369Z,82.69
2019-05-10T03:43:34.900Z,84.03
2019-05-10T03:46:02.907Z,84.59
2019-05-10T03:48:30.520Z,83.64
2019-05-10T03:50:57.868Z,84.61
2019-05-10T03:53:25.497Z,82.61
2019-05-10T03:55:52.839Z,82.40
2019-05-10T03:58:20.315Z,83.48
2019-05-10T04:00:47.673Z,83.15
2019-05-10T04:03:18.014Z,82.05
2019-05-10T04:05:45.292Z,82.66
2019-05-10T04:08:12.601Z,82.62
2019-05-10T04:10:42.502Z,82.89
2019-05-10T04:13:09.634Z,83.83
2019-05-10T04:15:36.915Z,84.30
2019-05-10T04:18:04.406Z,82.93
2019-05-10T04:20:31.816Z,84.42
2019-05-10T04:22:59.199Z,85.09
2019-05-10T04:25:26.395Z,84.36
2019-05-10T04:27:53.642Z,85.29
2019-05-10T04:30:23.105Z,83.58
2019-05-10T04:32:50.818Z,83.51
2019-05-10T04:35:21.316Z,83.85
2019-05-10T04:37:49.853Z,83.33
2019-05-10T04:40:17.333Z,84.04
2019-05-10T04:42:44.472Z,84.50
2019-05-10T04:45:13.122Z,83.90
2019-05-10T04:47:40.351Z,84.38
2019-05-10T04:50:07.947Z,84.33
2019-05-10T04:52:35.472Z,84.80
2019-05-10T04:55:03.593Z,83.06
2019-05-10T04:57:47.953Z,84.19
2019-05-10T05:00:00.132Z,85.01
2019-05-10T05:02:27.597Z,86.17
2019-05-10T05:04:54.870Z,85.82
2019-05-10T05:07:22.033Z,85.18
2019-05-10T05:09:49.758Z,85.36
2019-05-10T05:12:19.765Z,86.76
2019-05-10T05:14:47.099Z,86.59
2019-05-10T05:17:15.022Z,86.48
2019-05-10T05:19:42.532Z,87.24
2019-05-10T05:22:09.981Z,86.56
2019-05-10T05:24:40.466Z,86.41
2019-05-10T05:27:07.973Z,85.05
2019-05-10T05:29:35.275Z,84.58
2019-05-10T05:32:03.638Z,82.77
2019-05-10T05:34:31.060Z,82.41
2019-05-10T05:36:58.741Z,82.80
2019-05-10T05:39:25.839Z,82.27
2019-05-10T05:41:56.677Z,82.00
2019-05-10T05:44:26.143Z,81.38
2019-05-10T05:46:53.888Z,80.48
2019-05-10T05:49:21.040Z,79.58
2019-05-10T05:51:48.304Z,79.62
2019-05-10T05:54:20.831Z,77.26
2019-05-10T05:56:50.518Z,78.00
2019-05-10T05:59:17.490Z,78.27
2019-05-10T06:01:43.724Z,77.68
2019-05-10T06:04:12.824Z,76.45
2019-05-10T06:06:40.105Z,77.62
2019-05-10T06:09:07.708Z,76.14
2019-05-10T06:11:35.675Z,77.59
2019-05-10T06:14:10.917Z,76.80
2019-05-10T06:16:35.092Z,77.12
2019-05-10T06:19:02.590Z,76.64
2019-05-10T06:21:29.954Z,76.88
2019-05-10T06:23:59.426Z,76.86
2019-05-10T06:26:28.786Z,75.22
2019-05-10T06:28:59.418Z,77.56
2019-05-10T06:31:27.439Z,78.01
2019-05-10T06:33:54.765Z,77.06
2019-05-10T06:36:21.921Z,76.37
2019-05-10T06:38:49.188Z,78.28
2019-05-10T06:41:17.436Z,77.83
2019-05-10T06:43:51.254Z,75.90
2019-05-10T06:46:16.857Z,77.82
2019-05-10T06:48:46.524Z,76.97
2019-05-10T06:51:13.768Z,75.39
2019-05-10T06:53:48.846Z,77.33
2019-05-10T06:56:12.035Z,76.75
2019-05-10T06:58:39.673Z,74.47
2019-05-10T07:01:07.077Z,72.30
2019-05-10T07:03:34.332Z,75.83
2019-05-10T07:06:01.610Z,74.86
2019-05-10T07:08:44.375Z,73.42
2019-05-10T07:11:10.104Z,75.05
2019-05-10T07:13:40.512Z,75.41
2019-05-10T07:16:06.469Z,74.23
2019-05-10T07:18:33.727Z,74.91
2019-05-10T07:21:06.506Z,72.93
2019-05-10T07:23:32.237Z,74.83
2019-05-10T07:25:59.724Z,72.52
2019-05-10T07:28:29.673Z,71.47
2019-05-10T07:30:56.961Z,71.11
2019-05-10T07:33:24.436Z,71.32
2019-05-10T07:35:52.938Z,73.72
2019-05-10T07:38:23.549Z,72.75
2019-05-10T07:40:50.354Z,70.78
2019-05-10T07:43:24.847Z,73.64
2019-05-10T07:45:47.115Z,67.62
2019-05-10T07:48:14.473Z,69.94
2019-05-10T07:50:42.446Z,68.61
2019-05-10T07:53:16.180Z,67.81
2019-05-10T07:55:40.230Z,66.53
2019-05-10T07:58:11.130Z,66.53
2019-05-10T08:00:44.474Z,69.14
2019-05-10T08:03:15.986Z,69.55
2019-05-10T08:05:39.135Z,66.78
2019-05-10T08:08:06.571Z,65.62
2019-05-10T08:10:33.926Z,63.78
2019-05-10T08:13:03.592Z,66.14
2019-05-10T08:15:34.615Z,64.43
2019-05-10T08:17:59.503Z,62.70
2019-05-10T08:20:41.300Z,62.82
2019-05-10T08:22:56.058Z,63.58
2019-05-10T08:25:29.324Z,63.88
2019-05-10T08:27:55.259Z,61.11
2019-05-10T08:30:51.705Z,61.83
2019-05-10T08:33:14.379Z,63.51
2019-05-10T08:35:46.452Z,63.28
2019-05-10T08:38:14.320Z,61.48
2019-05-10T08:40:42.748Z,60.62
2019-05-10T08:43:15.485Z,58.04
2019-05-10T08:45:45.179Z,57.36
2019-05-10T08:48:12.691Z,57.35
2019-05-10T08:50:50.704Z,58.56
2019-05-10T08:53:10.764Z,60.32
2019-05-10T08:55:43.263Z,58.03
2019-05-10T08:58:12.416Z,55.46
2019-05-10T09:00:50.646Z,55.28
2019-05-10T09:03:11.972Z,54.36
2019-05-10T09:05:40.038Z,57.47
2019-05-10T09:08:13.591Z,55.94
2019-05-10T09:10:37.283Z,56.05
2019-05-10T09:13:04.867Z,57.23
2019-05-10T09:15:34.578Z,56.16
2019-05-10T09:18:05.904Z,56.11
2019-05-10T09:20:33.994Z,53.22
2019-05-10T09:23:02.430Z,55.35
2019-05-10T09:25:33.812Z,56.61
2019-05-10T09:28:10.680Z,55.97
2019-05-10T09:30:35.653Z,54.22
2019-05-10T09:33:08.523Z,53.70
2019-05-10T09:35:51.205Z,54.05
2019-05-10T09:38:15.534Z,51.71
2019-05-10T09:40:51.034Z,52.02
2019-05-10T09:43:15.151Z,51.02
2019-05-10T09:45:42.911Z,51.22
2019-05-10T09:48:12.083Z,49.99
2019-05-10T09:50:44.327Z,49.33
2019-05-10T09:53:10.432Z,50.49
2019-05-10T09:55:38.110Z,49.69
2019-05-10T09:58:05.378Z,49.43
2019-05-10T10:00:37.692Z,50.79
2019-05-10T10:03:08.086Z,48.77
2019-05-10T10:05:34.844Z,47.89
2019-05-10T10:08:03.564Z,45.72
2019-05-10T10:10:32.552Z,45.29
2019-05-10T10:13:08.470Z,44.45
2019-05-10T10:15:34.108Z,43.22
2019-05-10T10:18:00.586Z,46.08
2019-05-10T10:20:30.075Z,42.68
2019-05-10T10:22:57.447Z,43.02
2019-05-10T10:25:27.747Z,43.97
2019-05-10T10:28:00.794Z,38.64
2019-05-10T10:30:31.284Z,36.64
2019-05-10T10:32:58.117Z,37.42
2019-05-10T10:35:29.907Z,36.69
2019-05-10T10:38:02.209Z,33.41
2019-05-10T10:40:27.887Z,35.55
2019-05-10T10:42:57.778Z,35.12
2019-05-10T10:45:27.585Z,35.63
2019-05-10T10:47:57.122Z,33.01
2019-05-10T10:50:27.364Z,31.52
2019-05-10T10:52:57.347Z,31.72
2019-05-10T10:55:30.555Z,29.43
2019-05-10T10:57:53.923Z,28.78
2019-05-10T11:00:32.799Z,29.49
2019-05-10T11:03:01.793Z,27.83
2019-05-10T11:05:29.189Z,27.08
2019-05-10T11:07:56.468Z,28.95
2019-05-10T11:10:31.029Z,30.25
2019-05-10T11:13:02.851Z,30.71
2019-05-10T11:15:35.612Z,31.02
2019-05-10T11:18:00.411Z,30.26
2019-05-10T11:20:31.904Z,28.89
2019-05-10T11:22:59.465Z,27.48
2019-05-10T11:25:26.994Z,27.66
2019-05-10T11:27:58.543Z,28.46
2019-05-10T11:30:23.671Z,27.45
2019-05-10T11:32:51.045Z,25.46
2019-05-10T11:35:28.473Z,24.77
2019-05-10T11:37:53.151Z,25.68
2019-05-10T11:40:30.553Z,26.38
2019-05-10T11:42:51.101Z,25.33
2019-05-10T11:45:20.896Z,27.24
2019-05-10T11:47:52.685Z,26.27
2019-05-10T11:50:28.820Z,24.69
2019-05-10T11:52:51.522Z,25.79
2019-05-10T11:58:02.036Z,25.06
2019-05-10T11:59:04.832Z,25.00
2019-05-10T12:00:29.142Z,25.70
2019-05-10T12:03:06.871Z,23.49
2019-05-10T12:05:26.319Z,23.51
2019-05-10T12:07:54.162Z,23.99
2019-05-10T12:10:25.756Z,24.17
2019-05-10T12:13:06.594Z,23.39
2019-05-10T12:15:25.423Z,24.93
2019-05-10T12:17:58.524Z,23.25
2019-05-10T12:20:30.250Z,24.08
2019-05-10T12:22:51.823Z,24.99
2019-05-10T12:26:21.452Z,23.21
2019-05-10T12:27:49.909Z,23.14
2019-05-10T12:30:18.670Z,23.07
2019-05-10T12:32:55.611Z,23.79
2019-05-10T12:35:15.406Z,23.10
2019-05-10T12:37:46.457Z,21.92
2019-05-10T12:40:15.210Z,22.16
2019-05-10T12:42:42.718Z,24.80
2019-05-10T12:45:10.356Z,25.60
2019-05-10T12:47:37.805Z,25.90
2019-05-10T12:50:06.373Z,23.56
2019-05-10T12:52:33.830Z,24.60
2019-05-10T12:55:01.495Z,26.91
2019-05-10T12:57:28.968Z,24.41
2019-05-10T12:59:57.267Z,24.70
2019-05-10T13:02:24.732Z,25.02
2019-05-10T13:04:52.379Z,23.24
2019-05-10T13:07:36.687Z,23.42
2019-05-10T13:10:06.502Z,23.75
2019-05-10T13:12:37.058Z,23.69
2019-05-10T13:15:04.570Z,25.07
2019-05-10T13:17:32.001Z,25.07
2019-05-10T13:20:01.192Z,25.01
2019-05-10T13:22:36.685Z,25.46
2019-05-10T13:24:58.685Z,25.90
2019-05-10T13:27:26.057Z,24.82
2019-05-10T13:29:53.928Z,24.76
2019-05-10T13:32:22.382Z,27.42
2019-05-10T13:34:49.905Z,24.01
2019-05-10T13:37:23.193Z,25.00
2019-05-10T13:39:46.270Z,25.00
2019-05-10T13:42:13.475Z,25.93
2019-05-10T13:44:42.912Z,27.16
2019-05-10T13:47:10.275Z,24.97
2019-05-10T13:49:43.896Z,26.85
2019-05-10T13:52:11.507Z,27.21
2019-05-10T13:54:38.850Z,26.37
2019-05-10T13:57:06.247Z,28.61
2019-05-10T13:59:37.174Z,29.25
2019-05-10T14:02:04.664Z,28.69
2019-05-10T14:04:33.923Z,29.70
2019-05-10T14:07:01.275Z,29.02
2019-05-10T14:09:28.466Z,31.65
2019-05-10T14:11:55.863Z,28.85
2019-05-10T14:14:26.584Z,30.18
2019-05-10T14:16:52.658Z,29.86
2019-05-10T14:19:22.840Z,29.93
2019-05-10T14:21:50.476Z,29.40
2019-05-10T14:24:17.714Z,30.83
2019-05-10T14:26:45.035Z,29.66
2019-05-10T14:29:12.278Z,29.64
2019-05-10T14:31:39.680Z,29.01
2019-05-10T14:34:15.525Z,31.58
2019-05-10T14:36:41.029Z,28.54
2019-05-10T14:39:06.475Z,28.33
2019-05-10T14:41:39.650Z,28.31
2019-05-10T14:44:05.784Z,28.32
2019-05-10T14:46:33.362Z,29.18
2019-05-10T14:49:09.605Z,29.23
2019-05-10T14:51:49.393Z,30.41
2019-05-10T14:54:06.512Z,30.61
2019-05-10T14:56:31.490Z,28.40
2019-05-10T14:59:00.926Z,27.34
2019-05-10T15:01:28.363Z,28.29
2019-05-10T15:03:55.694Z,27.53
2019-05-10T15:06:30.685Z,27.74
2019-05-10T15:08:58.212Z,28.37
2019-05-10T15:11:26.478Z,28.06
2019-05-10T15:13:54.724Z,30.39
2019-05-10T15:16:27.228Z,28.18
2019-05-10T15:18:53.982Z,31.12
2019-05-10T15:21:21.536Z,28.28
2019-05-10T15:23:49.963Z,29.14
2019-05-10T15:26:17.259Z,29.92
2019-05-10T15:28:44.641Z,31.23
2019-05-10T15:31:12.211Z,27.27
2019-05-10T15:33:39.655Z,29.48
2019-05-10T15:36:12.490Z,29.64
2019-05-10T15:38:49.876Z,28.79
2019-05-10T15:41:09.162Z,30.68
2019-05-10T15:43:36.692Z,28.28
2019-05-10T15:46:07.334Z,30.51
2019-05-10T15:48:36.657Z,28.89
2019-05-10T15:51:04.455Z,28.69
2019-05-10T15:53:32.066Z,29.85
2019-05-10T15:56:03.984Z,27.20
2019-05-10T15:58:30.564Z,27.93
2019-05-10T16:00:58.230Z,28.34
2019-05-10T16:03:27.307Z,30.58
2019-05-10T16:06:00.829Z,28.76
2019-05-10T16:08:30.386Z,30.25
2019-05-10T16:10:55.640Z,28.31
2019-05-10T16:13:31.817Z,28.43
2019-05-10T16:15:59.578Z,29.02
2019-05-10T16:18:33.295Z,28.75
2019-05-10T16:20:59.943Z,28.55
2019-05-10T16:23:27.196Z,28.53
2019-05-10T16:25:54.480Z,28.53
2019-05-10T16:28:22.989Z,28.88
2019-05-10T16:30:50.661Z,29.07
2019-05-10T16:33:18.233Z,29.47
2019-05-10T16:35:49.683Z,27.86
2019-05-10T16:38:15.092Z,30.53
2019-05-10T16:40:44.631Z,27.95
2019-05-10T16:43:13.957Z,28.59
2019-05-10T16:45:40.846Z,28.00
2019-05-10T16:48:08.111Z,29.56
2019-05-10T16:50:37.153Z,30.44
2019-05-10T16:53:06.248Z,29.38
2019-05-10T16:55:35.589Z,28.17
2019-05-10T16:58:03.756Z,30.09
2019-05-10T17:00:31.192Z,29.41
2019-05-10T17:02:58.425Z,30.45
2019-05-10T17:05:25.728Z,29.07
2019-05-10T17:07:53.671Z,29.70
2019-05-10T17:10:26.975Z,28.97
2019-05-10T17:12:51.512Z,30.43
2019-05-10T17:15:19.091Z,29.73
2019-05-10T17:17:52.305Z,29.98
2019-05-10T17:20:27.869Z,30.40
2019-05-10T17:22:55.165Z,30.86
2019-05-10T17:25:22.825Z,30.56
2019-05-10T17:27:56.785Z,31.48
2019-05-10T17:30:21.790Z,31.86
2019-05-10T17:32:51.689Z,30.87
2019-05-10T17:35:18.956Z,30.83
2019-05-10T17:37:46.759Z,31.39
2019-05-10T17:40:16.447Z,32.83
2019-05-10T17:42:47.543Z,30.83
2019-05-10T17:45:15.224Z,31.50
2019-05-10T17:47:42.471Z,31.40
2019-05-10T17:50:10.758Z,32.50
2019-05-10T17:52:38.255Z,31.23
2019-05-10T17:55:16.528Z,32.27
2019-05-10T17:57:39.616Z,32.30
2019-05-10T18:00:09.510Z,32.67
2019-05-10T18:02:47.850Z,31.67
2019-05-10T18:05:15.697Z,30.68
2019-05-10T18:07:42.880Z,33.45
2019-05-10T18:10:11.136Z,33.78
2019-05-10T18:12:39.577Z,33.32
2019-05-10T18:15:10.478Z,32.32
2019-05-10T18:17:37.867Z,33.90
2019-05-10T18:20:09.767Z,33.95
2019-05-10T18:22:47.274Z,34.25
2019-05-10T18:25:30.378Z,34.85
2019-05-10T18:28:05.118Z,34.60
2019-05-10T18:30:33.700Z,34.34
2019-05-10T18:33:06.567Z,33.98
2019-05-10T18:35:34.334Z,33.96
2019-05-10T18:38:07.005Z,34.39
2019-05-10T18:40:34.358Z,34.70
2019-05-10T18:43:03.838Z,34.66
2019-05-10T18:45:31.140Z,35.01
2019-05-10T18:47:58.417Z,34.84
2019-05-10T18:50:25.860Z,34.69
2019-05-10T18:52:53.561Z,35.10
2019-05-10T18:55:20.869Z,34.96
2019-05-10T18:57:50.502Z,35.71
2019-05-10T19:00:23.076Z,34.43
2019-05-10T19:02:55.338Z,35.94
2019-05-10T19:05:24.933Z,35.27
2019-05-10T19:08:02.584Z,36.37
2019-05-10T19:10:19.450Z,35.40
2019-05-10T19:12:59.946Z,36.81
2019-05-10T19:15:19.332Z,36.87
2019-05-10T19:17:47.310Z,37.24
2019-05-10T19:20:16.357Z,37.82
2019-05-10T19:22:44.412Z,37.75
2019-05-10T19:25:14.502Z,38.51
2019-05-10T19:27:44.651Z,37.81
2019-05-10T19:30:20.206Z,38.21
2019-05-10T19:32:43.836Z,37.71
2019-05-10T19:35:12.206Z,38.26
2019-05-10T19:37:39.563Z,37.47
2019-05-10T19:40:07.978Z,38.33
2019-05-10T19:42:37.332Z,39.28
2019-05-10T19:45:12.821Z,38.63
2019-05-10T19:47:44.659Z,39.20
2019-05-10T19:50:14.689Z,39.22
2019-05-10T19:52:42.577Z,38.87
2019-05-10T19:55:13.168Z,40.20
2019-05-10T19:57:39.541Z,39.32
2019-05-10T20:00:08.506Z,39.71
2019-05-10T20:02:35.992Z,40.01
2019-05-10T20:05:03.750Z,40.69
2019-05-10T20:07:44.386Z,41.07
2019-05-10T20:10:00.161Z,40.60
2019-05-10T20:12:27.842Z,41.69
2019-05-10T20:14:55.339Z,41.92
2019-05-10T20:17:22.976Z,42.58
2019-05-10T20:19:53.356Z,42.60
2019-05-10T20:22:20.559Z,42.53
2019-05-10T20:24:48.138Z,43.35
2019-05-10T20:27:15.403Z,43.77
2019-05-10T20:29:42.742Z,44.11
2019-05-10T20:32:13.088Z,45.79
2019-05-10T20:34:40.490Z,45.05
2019-05-10T20:37:08.080Z,46.19
2019-05-10T20:39:35.811Z,45.72
2019-05-10T20:42:03.266Z,46.46
2019-05-10T20:44:30.814Z,47.75
2019-05-10T20:46:58.331Z,47.08
2019-05-10T20:49:25.614Z,46.86
2019-05-10T20:51:52.963Z,47.48
2019-05-10T20:54:20.672Z,47.66
2019-05-10T20:56:47.819Z,47.62
2019-05-10T20:59:15.145Z,48.85
2019-05-10T21:01:42.407Z,48.40
2019-05-10T21:04:09.764Z,50.73
2019-05-10T21:06:36.917Z,49.88
2019-05-10T21:09:05.526Z,48.99
2019-05-10T21:11:32.940Z,49.50
2019-05-10T21:14:00.307Z,49.38
2019-05-10T21:16:27.587Z,50.53
2019-05-10T21:18:54.774Z,50.46
2019-05-10T21:21:22.053Z,52.08
2019-05-10T21:23:49.213Z,51.37
2019-05-10T21:26:21.900Z,51.59
2019-05-10T21:28:49.037Z,51.00
2019-05-10T21:31:16.221Z,51.88
2019-05-10T21:33:43.605Z,53.34
2019-05-10T21:36:10.972Z,52.83
2019-05-10T21:38:41.532Z,53.54
2019-05-10T21:41:07.277Z,54.63
2019-05-10T21:43:34.445Z,55.29
2019-05-10T21:46:01.829Z,54.88
2019-05-10T21:48:29.689Z,53.05
2019-05-10T21:50:56.955Z,54.82
2019-05-10T21:53:24.274Z,54.26
2019-05-10T21:55:51.438Z,53.77
2019-05-10T21:58:18.627Z,56.29
2019-05-10T22:00:50.232Z,54.06
2019-05-10T22:03:18.206Z,54.19
2019-05-10T22:05:45.708Z,52.99
2019-05-10T22:08:13.214Z,55.63
2019-05-10T22:10:40.765Z,54.78
2019-05-10T22:13:08.715Z,55.05
2019-05-10T22:15:36.097Z,55.21
2019-05-10T22:18:03.669Z,56.16
2019-05-10T22:20:31.636Z,56.52
2019-05-10T22:22:58.881Z,57.07
2019-05-10T22:25:26.221Z,57.13
2019-05-10T22:27:53.462Z,58.25
2019-05-10T22:30:21.467Z,55.21
2019-05-10T22:32:48.886Z,55.93
2019-05-10T22:35:16.371Z,56.95
2019-05-10T22:37:43.680Z,59.24
2019-05-10T22:40:11.356Z,58.41
2019-05-10T22:42:38.800Z,59.23
2019-05-10T22:45:06.667Z,56.40
2019-05-10T22:47:34.632Z,58.39
2019-05-10T22:50:02.399Z,56.86
2019-05-10T22:52:29.655Z,57.05
2019-05-10T22:55:00.330Z,59.00
2019-05-10T22:57:27.922Z,60.02
2019-05-10T22:59:55.066Z,59.30
2019-05-10T23:02:22.223Z,59.45
2019-05-10T23:04:49.391Z,58.01
2019-05-10T23:07:18.650Z,61.60
2019-05-10T23:09:45.814Z,58.17
2019-05-10T23:12:13.168Z,60.04
2019-05-10T23:14:40.417Z,60.43
2019-05-10T23:17:07.853Z,63.44
2019-05-10T23:19:35.178Z,61.19
2019-05-10T23:22:05.131Z,62.19
2019-05-10T23:24:38.159Z,64.00
2019-05-10T23:27:05.799Z,60.04
2019-05-10T23:29:33.830Z,61.27
2019-05-10T23:32:01.309Z,60.96
2019-05-10T23:34:32.172Z,63.11
2019-05-10T23:37:01.554Z,62.62
2019-05-10T23:39:40.145Z,62.30
2019-05-10T23:41:58.484Z,65.86
2019-05-10T23:44:26.060Z,66.52
2019-05-10T23:46:53.450Z,68.30
2019-05-10T23:49:22.725Z,69.71
2019-05-10T23:51:50.241Z,66.50
2019-05-10T23:54:17.521Z,66.99
2019-05-10T23:56:44.873Z,67.09
2019-05-10T23:59:12.146Z,67.98
